Time;durP1;ratioP1;P1;durP2;ratioP2;P2;SDS_P1;SDS_P2;PMS_P1;PMS_P2;Temp;Humidity;BMP_temperature;BMP_pressure;BME280_temperature;BME280_humidity;BME280_pressure;Samples;Min_cycle;Max_cycle;Signal;HPM_P1;HPM_P2
2022/10/26 00:02:00;;;;;;;26.13;8.53;;;;;;;;;;770204;180;919853;-65
2022/10/26 00:04:26;;;;;;;12.00;8.07;;;;;;;;;;773839;179;914901;-65
2022/10/26 00:06:52;;;;;;;13.10;8.13;;;;;;;;;;777730;180;916991;-63
2022/10/26 00:09:18;;;;;;;17.00;10.00;;;;;;;;;;775291;180;910987;-64
2022/10/26 00:11:44;;;;;;;14.40;8.20;;;;;;;;;;773906;180;919418;-69
2022/10/26 00:14:09;;;;;;;18.63;9.10;;;;;;;;;;778618;181;919873;-66
2022/10/26 00:16:35;;;;;;;11.77;8.90;;;;;;;;;;774169;180;914454;-69
2022/10/26 00:19:01;;;;;;;14.00;7.70;;;;;;;;;;771202;178;923337;-70
2022/10/26 00:21:27;;;;;;;16.83;8.87;;;;;;;;;;778836;181;915877;-70
2022/10/26 00:23:53;;;;;;;18.87;8.77;;;;;;;;;;772640;179;919275;-64
2022/10/26 00:26:19;;;;;;;17.93;9.33;;;;;;;;;;762914;181;914926;-70
2022/10/26 00:28:44;;;;;;;15.93;8.00;;;;;;;;;;775169;178;920479;-64
2022/10/26 00:31:10;;;;;;;12.93;9.07;;;;;;;;;;774304;181;916435;-66
2022/10/26 00:33:36;;;;;;;25.83;7.70;;;;;;;;;;771163;178;914273;-66
2022/10/26 00:36:02;;;;;;;74.50;10.18;;;;;;;;;;767375;180;916609;-65
2022/10/26 00:38:28;;;;;;;55.47;9.93;;;;;;;;;;766603;181;895113;-64
2022/10/26 00:40:54;;;;;;;104.17;11.10;;;;;;;;;;777145;180;892241;-64
2022/10/26 00:43:35;;;;;;;97.00;10.63;;;;;;;;;;776640;177;915254;-64
2022/10/26 00:46:01;;;;;;;102.03;10.17;;;;;;;;;;773977;177;915911;-70
2022/10/26 00:48:28;;;;;;;99.33;11.03;;;;;;;;;;768069;181;927977;-66
2022/10/26 00:50:54;;;;;;;50.60;8.83;;;;;;;;;;773290;178;915839;-68
2022/10/26 00:53:20;;;;;;;50.37;10.63;;;;;;;;;;778351;178;813929;-66
2022/10/26 00:55:46;;;;;;;47.30;7.93;;;;;;;;;;776794;180;921024;-65
2022/10/26 00:58:12;;;;;;;44.77;10.33;;;;;;;;;;770973;181;828060;-69
2022/10/26 01:00:38;;;;;;;45.83;9.00;;;;;;;;;;763830;181;911189;-67
2022/10/26 01:03:04;;;;;;;34.88;8.98;;;;;;;;;;775050;177;918847;-69
2022/10/26 01:05:29;;;;;;;22.27;8.07;;;;;;;;;;763964;184;905644;-70
2022/10/26 01:07:55;;;;;;;37.60;8.80;;;;;;;;;;768616;180;913698;-70
2022/10/26 01:10:21;;;;;;;30.53;7.77;;;;;;;;;;776776;179;811914;-66
2022/10/26 01:12:47;;;;;;;53.73;9.57;;;;;;;;;;780424;178;819896;-65
2022/10/26 01:15:13;;;;;;;41.67;8.50;;;;;;;;;;770277;178;932763;-70
2022/10/26 01:17:54;;;;;;;57.85;9.18;;;;;;;;;;771711;180;919405;-70
2022/10/26 01:20:25;;;;;;;67.13;10.77;;;;;;;;;;767349;177;918753;-65
2022/10/26 01:22:51;;;;;;;28.97;8.13;;;;;;;;;;775698;180;625733;-68
2022/10/26 01:25:20;;;;;;;48.67;9.30;;;;;;;;;;778113;181;618302;-69
2022/10/26 01:27:46;;;;;;;31.17;6.97;;;;;;;;;;778473;181;644367;-66
2022/10/26 01:30:27;;;;;;;58.23;9.03;;;;;;;;;;777243;181;670767;-67
2022/10/26 01:32:55;;;;;;;75.23;9.27;;;;;;;;;;772334;181;917374;-69
2022/10/26 01:35:22;;;;;;;76.40;9.10;;;;;;;;;;777148;180;920890;-70
2022/10/26 01:37:48;;;;;;;54.77;8.20;;;;;;;;;;775343;180;917559;-67
2022/10/26 01:40:18;;;;;;;38.73;8.13;;;;;;;;;;774426;178;914947;-65
2022/10/26 01:42:44;;;;;;;47.53;8.03;;;;;;;;;;774794;177;922069;-66
2022/10/26 01:45:10;;;;;;;31.17;7.63;;;;;;;;;;762746;177;909955;-69
2022/10/26 01:47:36;;;;;;;40.27;7.20;;;;;;;;;;766497;181;918275;-66
2022/10/26 01:50:02;;;;;;;20.43;7.17;;;;;;;;;;774000;180;919999;-67
2022/10/26 01:52:28;;;;;;;17.23;7.00;;;;;;;;;;780663;178;916699;-66
2022/10/26 01:55:00;;;;;;;14.73;6.67;;;;;;;;;;773383;180;919047;-69
2022/10/26 01:57:26;;;;;;;30.65;8.60;;;;;;;;;;766484;180;922346;-64
2022/10/26 01:59:58;;;;;;;38.73;7.90;;;;;;;;;;778001;177;816909;-66
2022/10/26 02:02:38;;;;;;;15.90;7.20;;;;;;;;;;780244;180;920200;-71
2022/10/26 02:05:09;;;;;;;16.60;7.80;;;;;;;;;;777510;178;909449;-70
2022/10/26 02:07:36;;;;;;;21.10;8.47;;;;;;;;;;782455;178;617307;-64
2022/10/26 02:10:17;;;;;;;29.87;8.57;;;;;;;;;;775183;177;815809;-66
2022/10/26 02:12:45;;;;;;;48.47;9.10;;;;;;;;;;776929;178;860165;-65
2022/10/26 02:15:14;;;;;;;26.83;7.77;;;;;;;;;;771965;180;815447;-66
2022/10/26 02:17:55;;;;;;;68.40;9.10;;;;;;;;;;778203;181;918285;-69
2022/10/26 02:20:25;;;;;;;43.40;9.67;;;;;;;;;;784379;178;638314;-69
2022/10/26 02:22:51;;;;;;;73.00;10.70;;;;;;;;;;765883;177;922094;-66
2022/10/26 02:25:19;;;;;;;92.72;12.02;;;;;;;;;;764431;180;920207;-66
2022/10/26 02:27:45;;;;;;;72.73;10.67;;;;;;;;;;772623;178;922131;-65
2022/10/26 02:30:12;;;;;;;96.67;11.27;;;;;;;;;;777499;180;919038;-69
2022/10/26 02:32:38;;;;;;;76.27;10.27;;;;;;;;;;770681;180;918625;-69
2022/10/26 02:35:04;;;;;;;51.37;9.65;;;;;;;;;;774765;180;918805;-69
2022/10/26 02:37:29;;;;;;;66.83;11.87;;;;;;;;;;778440;180;915335;-69
2022/10/26 02:39:55;;;;;;;48.97;9.10;;;;;;;;;;767119;180;918466;-69
2022/10/26 02:42:21;;;;;;;47.33;9.60;;;;;;;;;;772742;181;912501;-70
2022/10/26 02:44:47;;;;;;;41.27;9.50;;;;;;;;;;778436;177;815783;-69
2022/10/26 02:47:13;;;;;;;40.50;8.50;;;;;;;;;;768851;180;919547;-66
2022/10/26 02:49:39;;;;;;;39.78;8.45;;;;;;;;;;760907;181;892397;-65
2022/10/26 02:52:05;;;;;;;29.10;7.07;;;;;;;;;;774565;180;897912;-65
2022/10/26 02:54:32;;;;;;;40.43;8.80;;;;;;;;;;776220;179;935480;-70
2022/10/26 02:56:58;;;;;;;42.17;8.23;;;;;;;;;;769305;177;918827;-69
2022/10/26 02:59:24;;;;;;;52.90;8.63;;;;;;;;;;759803;181;923727;-69
2022/10/26 03:01:50;;;;;;;27.03;6.97;;;;;;;;;;777128;177;917180;-70
2022/10/26 03:04:15;;;;;;;30.00;7.50;;;;;;;;;;767024;180;848282;-69
2022/10/26 03:06:41;;;;;;;49.87;8.40;;;;;;;;;;767562;178;919089;-65
2022/10/26 03:09:07;;;;;;;40.63;8.97;;;;;;;;;;777930;180;919585;-64
2022/10/26 03:11:33;;;;;;;28.33;8.70;;;;;;;;;;772828;180;920382;-69
2022/10/26 03:13:59;;;;;;;83.80;11.73;;;;;;;;;;770766;180;1002370;-65
2022/10/26 03:16:25;;;;;;;107.63;10.97;;;;;;;;;;774460;179;918337;-69
2022/10/26 03:18:51;;;;;;;83.53;8.83;;;;;;;;;;779303;179;918501;-70
2022/10/26 03:21:17;;;;;;;67.78;8.93;;;;;;;;;;773257;180;820533;-69
2022/10/26 03:23:42;;;;;;;76.37;9.10;;;;;;;;;;771547;179;931423;-69
2022/10/26 03:26:08;;;;;;;91.40;8.87;;;;;;;;;;780153;177;908928;-64
2022/10/26 03:28:34;;;;;;;98.77;11.03;;;;;;;;;;774298;180;907717;-64
2022/10/26 03:31:00;;;;;;;101.50;9.77;;;;;;;;;;771931;181;919192;-64
2022/10/26 03:33:26;;;;;;;46.87;8.20;;;;;;;;;;780471;180;918655;-70
2022/10/26 03:35:55;;;;;;;59.23;8.40;;;;;;;;;;762741;180;917031;-66
2022/10/26 03:38:20;;;;;;;54.70;8.33;;;;;;;;;;768361;179;914234;-65
2022/10/26 03:40:47;;;;;;;46.50;9.10;;;;;;;;;;770291;181;917022;-66
2022/10/26 03:43:12;;;;;;;51.93;8.83;;;;;;;;;;777736;177;863198;-70
2022/10/26 03:45:38;;;;;;;29.83;7.20;;;;;;;;;;757036;182;922494;-70
2022/10/26 03:48:04;;;;;;;44.30;8.50;;;;;;;;;;770225;181;918952;-65
2022/10/26 03:50:30;;;;;;;48.10;7.70;;;;;;;;;;777941;180;918709;-66
2022/10/26 03:52:55;;;;;;;25.67;7.23;;;;;;;;;;757404;181;919869;-66
2022/10/26 03:55:21;;;;;;;22.77;7.03;;;;;;;;;;763636;178;815860;-70
2022/10/26 03:57:47;;;;;;;15.37;6.23;;;;;;;;;;772493;180;918459;-65
2022/10/26 04:00:14;;;;;;;21.05;7.18;;;;;;;;;;764894;178;916573;-70
2022/10/26 04:02:40;;;;;;;27.47;8.27;;;;;;;;;;767486;180;910861;-66
2022/10/26 04:05:06;;;;;;;27.63;7.00;;;;;;;;;;773851;179;821449;-69
2022/10/26 04:07:32;;;;;;;42.07;7.93;;;;;;;;;;777998;178;931450;-65
2022/10/26 04:09:58;;;;;;;36.85;7.28;;;;;;;;;;773262;180;818293;-66
2022/10/26 04:12:24;;;;;;;36.67;7.77;;;;;;;;;;770971;180;908262;-66
2022/10/26 04:14:49;;;;;;;17.33;6.77;;;;;;;;;;778475;180;899415;-69
2022/10/26 04:17:15;;;;;;;23.33;6.73;;;;;;;;;;773708;179;919029;-69
2022/10/26 04:19:41;;;;;;;24.83;7.20;;;;;;;;;;776135;181;917395;-70
2022/10/26 04:22:07;;;;;;;19.80;9.40;;;;;;;;;;780833;180;631606;-70
2022/10/26 04:24:33;;;;;;;15.40;8.57;;;;;;;;;;774975;177;646025;-70
2022/10/26 04:26:59;;;;;;;12.30;8.43;;;;;;;;;;775829;180;627425;-71
2022/10/26 04:29:25;;;;;;;14.13;8.83;;;;;;;;;;762177;184;626581;-66
2022/10/26 04:31:50;;;;;;;26.07;13.77;;;;;;;;;;771143;177;921501;-64
2022/10/26 04:34:16;;;;;;;13.47;8.33;;;;;;;;;;769696;178;917633;-67
2022/10/26 04:36:42;;;;;;;10.75;8.00;;;;;;;;;;772610;180;918049;-70
2022/10/26 04:39:08;;;;;;;40.40;9.27;;;;;;;;;;779655;180;919174;-68
2022/10/26 04:41:34;;;;;;;20.13;6.53;;;;;;;;;;774475;177;919571;-69
2022/10/26 04:44:00;;;;;;;17.57;6.80;;;;;;;;;;775238;180;919477;-66
2022/10/26 04:46:26;;;;;;;28.10;7.63;;;;;;;;;;779515;180;920556;-65
2022/10/26 04:48:51;;;;;;;23.30;7.20;;;;;;;;;;774258;180;919176;-70
2022/10/26 04:51:17;;;;;;;19.43;6.87;;;;;;;;;;770591;180;914118;-66
2022/10/26 04:53:44;;;;;;;26.17;6.60;;;;;;;;;;774741;180;888095;-66
2022/10/26 04:56:09;;;;;;;55.43;8.03;;;;;;;;;;775562;180;919235;-66
2022/10/26 04:58:35;;;;;;;68.57;8.60;;;;;;;;;;774929;180;816794;-65
2022/10/26 05:01:02;;;;;;;60.22;8.30;;;;;;;;;;769641;180;919653;-66
2022/10/26 05:03:27;;;;;;;20.33;6.00;;;;;;;;;;766411;181;918810;-64
2022/10/26 05:05:54;;;;;;;35.17;7.00;;;;;;;;;;766418;181;919435;-69
2022/10/26 05:08:20;;;;;;;83.07;9.20;;;;;;;;;;772430;181;816025;-64
2022/10/26 05:10:47;;;;;;;62.07;8.17;;;;;;;;;;770255;181;815722;-66
2022/10/26 05:13:13;;;;;;;40.53;7.40;;;;;;;;;;774062;180;920715;-64
2022/10/26 05:15:38;;;;;;;24.70;7.70;;;;;;;;;;772589;179;916694;-64
2022/10/26 05:18:04;;;;;;;49.00;9.40;;;;;;;;;;777437;177;914697;-65
2022/10/26 05:20:30;;;;;;;73.13;9.83;;;;;;;;;;773997;180;923781;-70
2022/10/26 05:22:56;;;;;;;58.42;9.60;;;;;;;;;;771829;180;919524;-70
2022/10/26 05:25:22;;;;;;;31.13;8.70;;;;;;;;;;774856;179;919077;-70
2022/10/26 05:27:48;;;;;;;22.27;8.40;;;;;;;;;;778201;180;919614;-66
2022/10/26 05:30:14;;;;;;;19.43;7.60;;;;;;;;;;775050;178;919049;-66
2022/10/26 05:32:40;;;;;;;27.80;7.00;;;;;;;;;;774804;177;917317;-64
2022/10/26 05:35:06;;;;;;;35.87;7.23;;;;;;;;;;779316;180;919219;-65
2022/10/26 05:37:32;;;;;;;28.47;7.60;;;;;;;;;;774234;180;921042;-69
2022/10/26 05:39:57;;;;;;;30.73;8.30;;;;;;;;;;775728;177;909189;-64
2022/10/26 05:42:24;;;;;;;16.27;7.63;;;;;;;;;;780575;177;816123;-66
2022/10/26 05:44:49;;;;;;;30.83;6.77;;;;;;;;;;771413;177;816361;-65
2022/10/26 05:47:15;;;;;;;38.33;8.20;;;;;;;;;;761566;180;918699;-69
2022/10/26 05:49:42;;;;;;;42.28;7.40;;;;;;;;;;775751;180;919048;-69
2022/10/26 05:52:08;;;;;;;35.55;7.85;;;;;;;;;;780293;180;810738;-64
2022/10/26 05:54:34;;;;;;;29.17;7.73;;;;;;;;;;774274;178;914510;-66
2022/10/26 05:57:00;;;;;;;46.30;10.00;;;;;;;;;;774459;180;920368;-65
2022/10/26 05:59:26;;;;;;;13.73;9.00;;;;;;;;;;778776;178;917458;-69
2022/10/26 06:02:06;;;;;;;23.63;9.50;;;;;;;;;;772825;178;858822;-70
2022/10/26 06:04:37;;;;;;;11.70;8.30;;;;;;;;;;767446;180;909240;-65
2022/10/26 06:07:00;;;;;;;34.30;8.47;;;;;;;;;;772130;179;918350;-64
2022/10/26 06:09:27;;;;;;;24.50;7.40;;;;;;;;;;774504;180;917414;-68
2022/10/26 06:11:53;;;;;;;22.50;8.50;;;;;;;;;;772871;180;821394;-69
2022/10/26 06:14:19;;;;;;;72.67;9.37;;;;;;;;;;773967;181;918999;-63
2022/10/26 06:16:47;;;;;;;34.23;8.63;;;;;;;;;;771202;180;919548;-68
2022/10/26 06:19:16;;;;;;;63.23;11.50;;;;;;;;;;775621;180;903470;-64
2022/10/26 06:21:43;;;;;;;33.77;8.87;;;;;;;;;;769761;180;919335;-67
2022/10/26 06:24:10;;;;;;;15.65;8.13;;;;;;;;;;757473;181;916209;-63
2022/10/26 06:26:38;;;;;;;19.40;7.37;;;;;;;;;;770988;180;917848;-63
2022/10/26 06:29:04;;;;;;;25.93;8.13;;;;;;;;;;778967;180;900186;-64
2022/10/26 06:31:29;;;;;;;25.23;7.87;;;;;;;;;;773619;177;906697;-68
2022/10/26 06:33:55;;;;;;;39.60;8.17;;;;;;;;;;773069;180;818443;-68
2022/10/26 06:36:22;;;;;;;19.43;7.70;;;;;;;;;;780099;179;818810;-68
2022/10/26 06:38:47;;;;;;;14.20;7.10;;;;;;;;;;772339;180;915543;-68
2022/10/26 06:41:15;;;;;;;55.63;19.47;;;;;;;;;;773503;177;915454;-69
2022/10/26 06:43:40;;;;;;;75.43;26.77;;;;;;;;;;763478;181;912037;-68
2022/10/26 06:46:22;;;;;;;97.00;30.50;;;;;;;;;;775154;178;813745;-65
2022/10/26 06:49:02;;;;;;;54.37;21.90;;;;;;;;;;776869;178;812023;-63
2022/10/26 06:51:28;;;;;;;51.95;23.40;;;;;;;;;;767729;179;915239;-67
2022/10/26 06:53:57;;;;;;;45.77;21.23;;;;;;;;;;766697;181;915249;-63
2022/10/26 06:56:23;;;;;;;36.03;19.37;;;;;;;;;;774920;180;905330;-64
2022/10/26 06:58:49;;;;;;;33.00;19.47;;;;;;;;;;779592;180;893690;-64
2022/10/26 07:01:15;;;;;;;29.50;16.93;;;;;;;;;;770111;181;912575;-66
2022/10/26 07:03:41;;;;;;;22.43;15.07;;;;;;;;;;771774;178;915002;-68
2022/10/26 07:06:07;;;;;;;11.30;7.70;;;;;;;;;;777171;181;869978;-69
2022/10/26 07:08:32;;;;;;;13.40;9.27;;;;;;;;;;769331;177;919116;-66
2022/10/26 07:10:58;;;;;;;14.17;11.10;;;;;;;;;;757261;179;913771;-69
2022/10/26 07:13:24;;;;;;;15.83;11.33;;;;;;;;;;775400;181;916693;-69
2022/10/26 07:15:50;;;;;;;13.70;9.87;;;;;;;;;;772898;181;915656;-64
2022/10/26 07:18:16;;;;;;;15.23;9.10;;;;;;;;;;770586;180;928737;-65
2022/10/26 07:20:42;;;;;;;14.10;10.20;;;;;;;;;;770204;179;916028;-69
2022/10/26 07:23:09;;;;;;;14.90;12.00;;;;;;;;;;773177;180;912235;-69
2022/10/26 07:25:33;;;;;;;13.27;8.53;;;;;;;;;;770455;178;915562;-64
2022/10/26 07:27:59;;;;;;;7.17;5.27;;;;;;;;;;771666;178;914062;-68
2022/10/26 07:30:25;;;;;;;8.73;6.13;;;;;;;;;;778170;180;814942;-65
2022/10/26 07:32:51;;;;;;;5.93;4.07;;;;;;;;;;774661;180;914994;-69
2022/10/26 07:35:17;;;;;;;10.63;4.10;;;;;;;;;;770765;177;812752;-69
2022/10/26 07:37:43;;;;;;;8.23;4.20;;;;;;;;;;779070;181;649714;-70
2022/10/26 07:40:09;;;;;;;6.57;3.90;;;;;;;;;;771997;180;815672;-68
2022/10/26 07:42:36;;;;;;;6.90;4.50;;;;;;;;;;772306;178;915316;-65
2022/10/26 07:45:02;;;;;;;5.73;4.60;;;;;;;;;;771535;180;919273;-69
2022/10/26 07:47:27;;;;;;;6.63;3.90;;;;;;;;;;771528;179;818689;-67
2022/10/26 07:49:53;;;;;;;5.83;5.23;;;;;;;;;;772084;177;919270;-69
2022/10/26 07:52:19;;;;;;;8.27;4.90;;;;;;;;;;768190;181;816119;-67
2022/10/26 07:54:45;;;;;;;5.18;4.68;;;;;;;;;;780918;180;775201;-67
2022/10/26 07:57:11;;;;;;;9.93;4.47;;;;;;;;;;773811;181;810683;-69
2022/10/26 07:59:37;;;;;;;9.80;4.60;;;;;;;;;;775590;180;880650;-69
2022/10/26 08:02:02;;;;;;;5.97;4.43;;;;;;;;;;777544;181;909590;-70
2022/10/26 08:04:28;;;;;;;7.40;4.57;;;;;;;;;;773513;178;917637;-66
2022/10/26 08:06:54;;;;;;;10.70;4.50;;;;;;;;;;774753;178;916333;-67
2022/10/26 08:09:20;;;;;;;5.57;4.40;;;;;;;;;;775318;180;906515;-67
2022/10/26 08:11:46;;;;;;;5.30;4.40;;;;;;;;;;768138;181;918464;-68
2022/10/26 08:14:12;;;;;;;5.10;4.20;;;;;;;;;;770888;180;916195;-69
2022/10/26 08:16:39;;;;;;;6.37;4.80;;;;;;;;;;770930;179;919340;-67
2022/10/26 08:19:03;;;;;;;9.87;5.03;;;;;;;;;;770395;180;916608;-68
2022/10/26 08:21:29;;;;;;;8.33;5.20;;;;;;;;;;774430;177;918139;-67
2022/10/26 08:23:55;;;;;;;8.60;4.93;;;;;;;;;;771914;180;879223;-67
2022/10/26 08:26:21;;;;;;;7.33;5.23;;;;;;;;;;778673;180;913087;-67
2022/10/26 08:28:47;;;;;;;6.63;5.30;;;;;;;;;;769829;177;918587;-69
2022/10/26 08:31:13;;;;;;;9.20;5.73;;;;;;;;;;760357;181;919268;-67
2022/10/26 08:33:38;;;;;;;9.73;5.83;;;;;;;;;;777000;180;914585;-69
2022/10/26 08:36:04;;;;;;;10.63;5.10;;;;;;;;;;772505;180;915473;-68
2022/10/26 08:38:32;;;;;;;11.00;5.47;;;;;;;;;;772956;180;919115;-69
2022/10/26 08:40:56;;;;;;;7.80;5.33;;;;;;;;;;772404;179;802289;-69
2022/10/26 08:43:25;;;;;;;7.90;5.60;;;;;;;;;;775750;178;892157;-65
2022/10/26 08:45:52;;;;;;;8.43;5.30;;;;;;;;;;773466;180;914745;-67
2022/10/26 08:48:18;;;;;;;8.47;4.70;;;;;;;;;;772103;178;920879;-67
2022/10/26 08:50:44;;;;;;;8.23;5.50;;;;;;;;;;775619;178;916194;-67
2022/10/26 08:53:16;;;;;;;10.30;7.10;;;;;;;;;;771756;180;911945;-68
2022/10/26 08:55:42;;;;;;;7.30;5.77;;;;;;;;;;773436;178;864623;-69
2022/10/26 08:58:08;;;;;;;10.17;6.33;;;;;;;;;;771793;178;915954;-69
2022/10/26 09:00:34;;;;;;;7.83;5.53;;;;;;;;;;780513;178;902092;-69
2022/10/26 09:03:00;;;;;;;6.77;4.50;;;;;;;;;;772298;178;919448;-68
2022/10/26 09:05:26;;;;;;;6.07;4.37;;;;;;;;;;771353;180;916061;-67
2022/10/26 09:07:52;;;;;;;14.60;5.47;;;;;;;;;;776833;177;921526;-68
2022/10/26 09:10:26;;;;;;;8.73;4.20;;;;;;;;;;773065;180;931915;-65
2022/10/26 09:12:56;;;;;;;5.73;4.00;;;;;;;;;;769262;179;920988;-67
2022/10/26 09:15:22;;;;;;;9.97;4.47;;;;;;;;;;761719;181;922306;-68
2022/10/26 09:17:49;;;;;;;8.07;5.07;;;;;;;;;;777455;180;948794;-68
2022/10/26 09:20:30;;;;;;;7.80;4.57;;;;;;;;;;773567;181;852310;-68
2022/10/26 09:22:56;;;;;;;11.57;4.00;;;;;;;;;;770306;180;920956;-68
2022/10/26 09:25:22;;;;;;;6.43;4.00;;;;;;;;;;769627;179;915777;-68
2022/10/26 09:27:48;;;;;;;8.30;4.13;;;;;;;;;;770591;178;924738;-67
2022/10/26 09:30:14;;;;;;;6.20;4.77;;;;;;;;;;778950;180;917161;-68
2022/10/26 09:32:43;;;;;;;8.30;4.10;;;;;;;;;;775227;180;920431;-69
2022/10/26 09:35:09;;;;;;;6.23;3.87;;;;;;;;;;773479;180;920445;-69
2022/10/26 09:37:36;;;;;;;6.20;3.70;;;;;;;;;;775730;179;919145;-69
2022/10/26 09:40:07;;;;;;;6.07;4.07;;;;;;;;;;773611;180;816007;-67
2022/10/26 09:42:35;;;;;;;6.77;3.50;;;;;;;;;;774555;179;814169;-68
2022/10/26 09:45:01;;;;;;;5.60;4.20;;;;;;;;;;770596;178;916574;-67
2022/10/26 09:47:37;;;;;;;6.93;4.30;;;;;;;;;;777644;180;803519;-68
2022/10/26 09:50:05;;;;;;;6.12;4.10;;;;;;;;;;778116;179;893739;-66
2022/10/26 09:52:31;;;;;;;5.83;4.20;;;;;;;;;;775108;180;711057;-66
2022/10/26 09:54:57;;;;;;;5.90;4.40;;;;;;;;;;773549;180;918423;-66
2022/10/26 09:57:22;;;;;;;5.70;4.73;;;;;;;;;;773656;180;1022858;-67
2022/10/26 09:59:50;;;;;;;8.50;4.50;;;;;;;;;;771327;181;941399;-67
2022/10/26 10:02:21;;;;;;;10.13;4.37;;;;;;;;;;774978;180;918238;-65
2022/10/26 10:04:47;;;;;;;6.87;4.83;;;;;;;;;;762679;183;919710;-67
2022/10/26 10:07:13;;;;;;;10.20;4.53;;;;;;;;;;773935;181;919852;-66
2022/10/26 10:09:38;;;;;;;9.07;4.43;;;;;;;;;;771393;178;921093;-66
2022/10/26 10:12:04;;;;;;;4.47;3.70;;;;;;;;;;777147;178;920850;-66
2022/10/26 10:14:32;;;;;;;6.03;4.13;;;;;;;;;;776766;180;921973;-67
2022/10/26 10:16:58;;;;;;;6.10;3.93;;;;;;;;;;771525;179;920065;-67
2022/10/26 10:19:26;;;;;;;5.57;3.23;;;;;;;;;;773593;179;818579;-65
2022/10/26 10:21:53;;;;;;;5.33;3.30;;;;;;;;;;773417;180;919527;-67
2022/10/26 10:24:38;;;;;;;6.17;3.80;;;;;;;;;;779688;181;921472;-68
2022/10/26 10:27:04;;;;;;;5.00;2.80;;;;;;;;;;781661;177;812671;-70
2022/10/26 10:29:30;;;;;;;5.47;3.80;;;;;;;;;;772902;177;918423;-67
2022/10/26 10:31:58;;;;;;;4.77;3.20;;;;;;;;;;772224;180;905548;-68
2022/10/26 10:34:24;;;;;;;13.43;3.70;;;;;;;;;;778076;181;816123;-66
2022/10/26 10:36:51;;;;;;;6.67;3.40;;;;;;;;;;757883;181;919189;-67
2022/10/26 10:39:22;;;;;;;8.07;4.40;;;;;;;;;;771612;180;919894;-68
2022/10/26 10:41:48;;;;;;;4.33;2.73;;;;;;;;;;775548;176;918919;-67
2022/10/26 10:44:17;;;;;;;6.55;4.97;;;;;;;;;;776493;180;918931;-68
2022/10/26 10:46:43;;;;;;;7.87;4.40;;;;;;;;;;763757;181;846342;-68
2022/10/26 10:49:17;;;;;;;8.73;5.00;;;;;;;;;;773524;178;854507;-66
2022/10/26 10:51:43;;;;;;;9.33;5.00;;;;;;;;;;771232;180;919100;-68
2022/10/26 10:54:21;;;;;;;7.73;4.20;;;;;;;;;;782882;180;816181;-68
2022/10/26 10:56:47;;;;;;;6.60;4.40;;;;;;;;;;779642;180;917136;-68
2022/10/26 10:59:15;;;;;;;5.10;3.63;;;;;;;;;;769739;180;918793;-68
2022/10/26 11:01:51;;;;;;;5.80;3.90;;;;;;;;;;769344;180;919234;-68
2022/10/26 11:04:20;;;;;;;8.53;4.00;;;;;;;;;;777028;180;815651;-66
2022/10/26 11:06:46;;;;;;;6.33;3.77;;;;;;;;;;777012;181;867822;-67
2022/10/26 11:09:18;;;;;;;9.00;4.10;;;;;;;;;;772652;180;914189;-68
2022/10/26 11:11:46;;;;;;;5.33;3.80;;;;;;;;;;771973;180;918348;-68
2022/10/26 11:14:16;;;;;;;4.50;3.70;;;;;;;;;;773009;178;920853;-66
2022/10/26 11:16:42;;;;;;;8.20;3.63;;;;;;;;;;778030;180;919603;-67
2022/10/26 11:19:14;;;;;;;5.07;3.03;;;;;;;;;;770867;180;919447;-67
2022/10/26 11:21:40;;;;;;;9.30;3.70;;;;;;;;;;774790;179;918197;-66
2022/10/26 11:24:12;;;;;;;10.43;3.90;;;;;;;;;;772506;176;918942;-67
2022/10/26 11:26:38;;;;;;;7.23;3.73;;;;;;;;;;773865;181;802890;-68
2022/10/26 11:29:04;;;;;;;3.63;2.50;;;;;;;;;;775962;180;918676;-67
2022/10/26 11:31:30;;;;;;;6.97;3.77;;;;;;;;;;777663;178;918778;-69
2022/10/26 11:33:56;;;;;;;6.33;3.63;;;;;;;;;;774813;180;917068;-69
2022/10/26 11:36:22;;;;;;;8.53;3.67;;;;;;;;;;773852;179;623022;-67
2022/10/26 11:38:48;;;;;;;5.97;3.40;;;;;;;;;;761834;181;917222;-67
2022/10/26 11:41:14;;;;;;;8.10;4.53;;;;;;;;;;776726;178;623584;-69
2022/10/26 11:43:41;;;;;;;8.60;4.00;;;;;;;;;;774373;180;897962;-69
2022/10/26 11:46:13;;;;;;;10.57;4.60;;;;;;;;;;773063;180;919649;-68
2022/10/26 11:48:42;;;;;;;8.63;3.78;;;;;;;;;;769965;179;918862;-67
2022/10/26 11:51:09;;;;;;;5.27;3.00;;;;;;;;;;768549;177;918604;-68
2022/10/26 11:53:36;;;;;;;11.53;3.57;;;;;;;;;;769550;180;943071;-68
2022/10/26 11:56:02;;;;;;;5.40;2.90;;;;;;;;;;773314;178;910165;-68
2022/10/26 11:58:27;;;;;;;6.50;2.53;;;;;;;;;;771876;180;808612;-68
2022/10/26 12:00:54;;;;;;;8.53;3.40;;;;;;;;;;779452;180;811313;-68
2022/10/26 12:03:21;;;;;;;7.77;3.40;;;;;;;;;;770228;180;817003;-67
2022/10/26 12:05:46;;;;;;;4.70;3.10;;;;;;;;;;770902;177;927916;-68
2022/10/26 12:08:13;;;;;;;5.53;2.73;;;;;;;;;;776311;180;625208;-67
2022/10/26 12:10:39;;;;;;;5.93;3.80;;;;;;;;;;777458;180;627131;-67
2022/10/26 12:13:11;;;;;;;6.80;3.80;;;;;;;;;;773784;177;808717;-68
2022/10/26 12:15:39;;;;;;;6.23;2.70;;;;;;;;;;771276;177;819593;-69
2022/10/26 12:18:04;;;;;;;8.10;3.40;;;;;;;;;;777105;180;912199;-70
2022/10/26 12:20:36;;;;;;;10.70;3.47;;;;;;;;;;772033;178;911561;-68
2022/10/26 12:23:03;;;;;;;10.43;4.53;;;;;;;;;;775515;181;639096;-67
2022/10/26 12:25:28;;;;;;;4.53;2.53;;;;;;;;;;776265;180;633538;-69
2022/10/26 12:27:54;;;;;;;6.63;3.70;;;;;;;;;;779222;180;625010;-69
2022/10/26 12:30:23;;;;;;;5.03;3.07;;;;;;;;;;775480;180;717250;-69
2022/10/26 12:32:49;;;;;;;5.23;3.33;;;;;;;;;;772477;180;820631;-69
2022/10/26 12:35:21;;;;;;;8.53;4.23;;;;;;;;;;777134;177;816714;-69
2022/10/26 12:37:46;;;;;;;8.00;5.20;;;;;;;;;;778907;181;916607;-70
2022/10/26 12:40:18;;;;;;;8.87;4.83;;;;;;;;;;770981;180;921896;-68
2022/10/26 12:42:44;;;;;;;8.63;5.07;;;;;;;;;;771566;180;919318;-69
2022/10/26 12:45:13;;;;;;;7.83;5.90;;;;;;;;;;776102;181;918766;-69
2022/10/26 12:47:54;;;;;;;8.37;4.50;;;;;;;;;;774982;180;919101;-69
2022/10/26 12:50:21;;;;;;;8.70;5.17;;;;;;;;;;780364;179;815716;-70
2022/10/26 12:52:48;;;;;;;11.63;6.77;;;;;;;;;;774787;180;632506;-68
2022/10/26 12:55:16;;;;;;;9.17;5.97;;;;;;;;;;774578;179;919053;-69
2022/10/26 12:57:57;;;;;;;9.63;5.17;;;;;;;;;;771752;180;918360;-69
2022/10/26 13:00:23;;;;;;;21.17;10.57;;;;;;;;;;772620;181;921703;-67
2022/10/26 13:02:51;;;;;;;12.60;7.43;;;;;;;;;;775018;180;915705;-68
2022/10/26 13:05:21;;;;;;;14.73;8.23;;;;;;;;;;765409;177;913542;-69
2022/10/26 13:07:47;;;;;;;14.63;7.93;;;;;;;;;;765236;181;919669;-69
2022/10/26 13:10:16;;;;;;;13.90;7.33;;;;;;;;;;779124;180;816504;-68
2022/10/26 13:12:45;;;;;;;17.33;8.03;;;;;;;;;;773846;180;918954;-68
2022/10/26 13:15:16;;;;;;;21.83;9.83;;;;;;;;;;774358;178;819163;-68
2022/10/26 13:17:42;;;;;;;17.77;8.63;;;;;;;;;;772769;177;918851;-67
2022/10/26 13:20:08;;;;;;;15.07;7.00;;;;;;;;;;778658;178;822489;-69
2022/10/26 13:22:34;;;;;;;15.33;8.53;;;;;;;;;;774386;180;921121;-69
2022/10/26 13:25:01;;;;;;;16.23;10.50;;;;;;;;;;772057;181;919784;-68
2022/10/26 13:27:40;;;;;;;19.37;10.17;;;;;;;;;;773983;180;920750;-68
2022/10/26 13:30:12;;;;;;;22.73;12.33;;;;;;;;;;772820;181;818583;-68
2022/10/26 13:32:38;;;;;;;25.67;15.13;;;;;;;;;;773117;180;918998;-68
2022/10/26 13:35:05;;;;;;;125.70;47.10;;;;;;;;;;769914;180;918649;-67
2022/10/26 13:37:31;;;;;;;35.87;19.37;;;;;;;;;;772746;179;925718;-67
2022/10/26 13:39:58;;;;;;;34.13;20.23;;;;;;;;;;770382;181;918551;-69
2022/10/26 13:42:23;;;;;;;34.57;18.53;;;;;;;;;;773585;180;919423;-68
2022/10/26 13:44:54;;;;;;;42.70;20.80;;;;;;;;;;770085;181;918951;-69
2022/10/26 13:47:27;;;;;;;60.97;29.40;;;;;;;;;;781642;179;918632;-67
2022/10/26 13:49:52;;;;;;;38.17;22.83;;;;;;;;;;778029;180;919050;-68
2022/10/26 13:52:22;;;;;;;38.90;22.17;;;;;;;;;;776381;179;919112;-68
2022/10/26 13:54:47;;;;;;;46.13;24.97;;;;;;;;;;773417;180;923146;-68
2022/10/26 13:57:14;;;;;;;45.05;24.45;;;;;;;;;;780175;181;918531;-68
2022/10/26 13:59:40;;;;;;;40.70;24.20;;;;;;;;;;771844;180;920358;-68
2022/10/26 14:02:07;;;;;;;41.60;22.30;;;;;;;;;;774815;178;818770;-68
2022/10/26 14:04:34;;;;;;;41.83;23.67;;;;;;;;;;774204;180;919728;-68
2022/10/26 14:07:00;;;;;;;43.90;23.90;;;;;;;;;;778532;179;918275;-70
2022/10/26 14:09:26;;;;;;;43.80;23.60;;;;;;;;;;774074;180;919024;-68
2022/10/26 14:11:52;;;;;;;43.90;24.30;;;;;;;;;;773479;180;918895;-69
2022/10/26 14:14:19;;;;;;;42.80;22.50;;;;;;;;;;776186;180;811113;-69
2022/10/26 14:16:45;;;;;;;39.17;23.00;;;;;;;;;;773637;180;921636;-68
2022/10/26 14:19:12;;;;;;;36.17;23.33;;;;;;;;;;771785;180;918686;-70